createdAt,value
2022-09-20T00:01:07.784Z,96434.47
2022-09-20T00:03:36.762Z,96438.97
2022-09-20T00:06:07.837Z,96381.75
2022-09-20T00:08:36.420Z,96437.19
2022-09-20T00:11:04.809Z,96419.22
2022-09-20T00:13:32.910Z,96378.66
2022-09-20T00:16:01.150Z,96437.53
2022-09-20T00:18:29.072Z,96428.84
2022-09-20T00:20:57.016Z,96416.13
2022-09-20T00:23:26.389Z,96419.03
2022-09-20T00:25:58.101Z,96343.41
2022-09-20T00:28:26.166Z,96413.97
2022-09-20T00:30:54.539Z,96408.41
2022-09-20T00:33:22.788Z,96407.53
2022-09-20T00:35:50.327Z,96402.47
2022-09-20T00:38:18.541Z,96361.25
2022-09-20T00:40:47.808Z,96391.28
2022-09-20T00:43:17.085Z,96404.69
2022-09-20T00:45:45.739Z,96403.78
2022-09-20T00:48:16.218Z,96371.28
2022-09-20T00:50:46.753Z,96394.44
2022-09-20T00:53:19.532Z,96378.06
2022-09-20T00:55:51.069Z,96419.06
2022-09-20T00:58:20.549Z,96416.88
2022-09-20T01:00:49.583Z,96410.75
2022-09-20T01:03:20.181Z,96406.47
2022-09-20T01:05:48.137Z,96409.91
2022-09-20T01:08:16.046Z,96414.28
2022-09-20T01:10:44.234Z,96410.84
2022-09-20T01:13:13.855Z,96415.31
2022-09-20T01:15:41.933Z,96410.72
2022-09-20T01:18:10.797Z,96416.47
2022-09-20T01:20:42.014Z,96413.84
2022-09-20T01:23:21.345Z,96398.75
2022-09-20T01:26:10.433Z,96404.34
2022-09-20T01:28:42.157Z,96397.34
2022-09-20T01:31:13.717Z,96396.84
2022-09-20T01:33:45.899Z,96403.63
2022-09-20T01:36:17.388Z,96349.34
2022-09-20T01:38:50.175Z,96403.34
2022-09-20T01:41:21.981Z,96404.06
2022-09-20T01:43:53.814Z,96400.13
2022-09-20T01:46:31.065Z,96404.59
2022-09-20T01:49:08.172Z,96357.56
2022-09-20T01:52:08.472Z,96402.03
2022-09-20T01:55:08.996Z,96400.25
2022-09-20T01:58:07.290Z,96405.56
2022-09-20T02:00:43.169Z,96404.56
2022-09-20T02:03:41.551Z,96405.78
2022-09-20T02:06:18.589Z,96405.03
2022-09-20T02:09:28.085Z,96385.13
2022-09-20T02:12:33.580Z,96389.41
2022-09-20T02:15:08.352Z,96401.72
2022-09-20T02:17:45.138Z,96285.72
2022-09-20T02:20:20.773Z,96406.47
2022-09-20T02:22:55.385Z,96326.69
2022-09-20T02:25:41.429Z,96409.75
2022-09-20T02:28:19.491Z,96404.09
2022-09-20T02:30:55.396Z,96408.13
2022-09-20T02:33:47.109Z,96412.22
2022-09-20T02:36:27.206Z,96406.22
2022-09-20T02:39:01.292Z,96413.03
2022-09-20T02:41:53.744Z,96400.81
2022-09-20T02:44:29.453Z,96408.47
2022-09-20T02:47:04.216Z,96398.66
2022-09-20T02:49:37.686Z,96412.16
2022-09-20T02:52:11.836Z,96413.81
2022-09-20T02:54:46.967Z,96415.22
2022-09-20T02:57:19.028Z,96426.56
2022-09-20T02:59:51.818Z,96417.28
2022-09-20T03:02:25.467Z,96420.16
2022-09-20T03:05:14.292Z,96424.59
2022-09-20T03:07:53.249Z,96428.41
2022-09-20T03:10:27.752Z,96424.53
2022-09-20T03:13:10.025Z,96429.41
2022-09-20T03:15:46.716Z,96428.50
2022-09-20T03:18:17.399Z,96427.13
2022-09-20T03:20:53.550Z,96426.22
2022-09-20T03:23:35.005Z,96430.47
2022-09-20T03:26:11.204Z,96426.09
2022-09-20T03:28:54.836Z,96430.72
2022-09-20T03:31:31.185Z,96426.72
2022-09-20T03:34:05.446Z,96392.53
2022-09-20T03:36:54.643Z,96425.28
2022-09-20T03:39:42.536Z,96333.53
2022-09-20T03:42:16.432Z,96402.59
2022-09-20T03:45:08.144Z,96418.81
2022-09-20T03:47:49.137Z,96408.59
2022-09-20T03:51:02.501Z,96411.97
2022-09-20T03:53:45.210Z,96411.59
2022-09-20T03:56:31.209Z,96407.03
2022-09-20T03:59:10.795Z,96421.47
2022-09-20T04:01:56.709Z,96414.88
2022-09-20T04:04:28.437Z,96359.84
2022-09-20T04:07:11.185Z,96337.59
2022-09-20T04:10:20.285Z,96409.22
2022-09-20T04:13:00.672Z,96418.59
2022-09-20T04:15:33.765Z,96419.03
2022-09-20T04:18:06.324Z,96419.44
2022-09-20T04:20:41.503Z,96346.16
2022-09-20T04:23:19.386Z,96428.31
2022-09-20T04:25:49.413Z,96425.97
2022-09-20T04:28:22.909Z,96419.75
2022-09-20T04:30:53.022Z,96424.50
2022-09-20T04:33:24.652Z,96428.78
2022-09-20T04:36:16.864Z,96432.53
2022-09-20T04:38:45.399Z,96433.75
2022-09-20T04:41:37.884Z,96396.66
2022-09-20T04:44:27.702Z,96439.81
2022-09-20T04:47:17.411Z,96443.16
2022-09-20T04:50:11.000Z,96447.25
2022-09-20T04:52:55.223Z,96453.16
2022-09-20T04:55:45.798Z,96369.06
2022-09-20T04:58:40.569Z,96448.13
2022-09-20T05:01:56.017Z,96448.31
2022-09-20T05:04:49.012Z,96444.66
2022-09-20T05:07:55.116Z,96454.81
2022-09-20T05:11:02.671Z,96419.16
2022-09-20T05:13:43.201Z,96463.97
2022-09-20T05:16:19.620Z,96450.22
2022-09-20T05:19:07.470Z,96448.22
2022-09-20T05:21:48.561Z,96450.59
2022-09-20T05:24:31.154Z,96461.06
2022-09-20T05:27:10.492Z,96461.06
2022-09-20T05:29:48.625Z,96457.22
2022-09-20T05:32:24.064Z,96460.22
2022-09-20T05:34:55.980Z,96474.91
2022-09-20T05:37:37.689Z,96477.81
2022-09-20T05:40:13.347Z,96484.63
2022-09-20T05:42:44.269Z,96486.22
2022-09-20T05:45:27.615Z,96488.00
2022-09-20T05:48:00.669Z,96487.38
2022-09-20T05:50:40.662Z,96488.34
2022-09-20T05:53:51.596Z,96485.84
2022-09-20T05:56:28.532Z,96493.94
2022-09-20T05:59:11.907Z,96494.78
2022-09-20T06:01:44.002Z,96494.69
2022-09-20T06:04:17.745Z,96501.66
2022-09-20T06:06:59.057Z,96495.66
2022-09-20T06:09:41.633Z,96498.28
2022-09-20T06:12:19.018Z,96497.69
2022-09-20T06:14:50.813Z,96501.72
2022-09-20T06:17:26.609Z,96497.47
2022-09-20T06:20:04.469Z,96490.94
2022-09-20T06:22:35.223Z,96458.63
2022-09-20T06:25:05.863Z,96503.69
2022-09-20T06:27:39.485Z,96510.34
2022-09-20T06:30:14.727Z,96513.28
2022-09-20T06:32:56.168Z,96511.66
2022-09-20T06:35:26.119Z,96510.84
2022-09-20T06:38:14.098Z,96517.38
2022-09-20T06:41:15.263Z,96512.28
2022-09-20T06:43:43.151Z,96511.28
2022-09-20T06:46:11.911Z,96511.16
2022-09-20T06:48:42.534Z,96477.28
2022-09-20T06:51:11.108Z,96520.09
2022-09-20T06:53:41.072Z,96467.06
2022-09-20T06:56:10.387Z,96501.88
2022-09-20T06:58:38.273Z,96518.41
2022-09-20T07:01:06.410Z,96517.50
2022-09-20T07:03:34.346Z,96519.13
2022-09-20T07:06:04.460Z,96515.53
2022-09-20T07:08:32.367Z,96520.69
2022-09-20T07:11:04.894Z,96529.16
2022-09-20T07:13:32.795Z,96507.38
2022-09-20T07:16:04.887Z,96519.13
2022-09-20T07:18:33.569Z,96541.88
2022-09-20T07:21:02.937Z,96534.09
2022-09-20T07:23:31.330Z,96536.44
2022-09-20T07:25:59.871Z,96532.28
2022-09-20T07:28:28.524Z,96545.22
2022-09-20T07:30:56.405Z,96549.22
2022-09-20T07:33:25.127Z,96555.91
2022-09-20T07:35:53.799Z,96558.47
2022-09-20T07:38:24.202Z,96545.16
2022-09-20T07:40:57.233Z,96559.66
2022-09-20T07:43:25.606Z,96574.25
2022-09-20T07:45:56.020Z,96574.25
2022-09-20T07:48:25.924Z,96570.75
2022-09-20T07:50:54.433Z,96572.34
2022-09-20T07:53:24.033Z,96571.47
2022-09-20T07:55:59.254Z,96573.91
2022-09-20T07:58:27.380Z,96572.47
2022-09-20T08:00:55.758Z,96572.63
2022-09-20T08:03:23.741Z,96570.25
2022-09-20T08:05:52.005Z,96559.22
2022-09-20T08:08:20.140Z,96565.13
2022-09-20T08:10:49.676Z,96554.72
2022-09-20T08:16:07.833Z,96557.66
2022-09-20T08:18:36.141Z,96558.06
2022-09-20T08:21:06.869Z,96560.88
2022-09-20T08:23:36.117Z,96558.84
2022-09-20T08:26:07.903Z,96560.81
2022-09-20T08:28:36.361Z,96558.75
2022-09-20T08:31:04.767Z,96506.59
2022-09-20T08:33:33.085Z,96566.81
2022-09-20T08:36:01.373Z,96551.25
2022-09-20T08:41:23.297Z,96556.72
2022-09-20T08:43:53.381Z,96566.81
2022-09-20T08:46:26.012Z,96563.91
2022-09-20T08:48:54.430Z,96550.81
2022-09-20T08:51:23.481Z,96500.59
2022-09-20T08:53:53.752Z,96553.69
2022-09-20T08:56:23.552Z,96555.59
2022-09-20T08:58:53.289Z,96552.91
2022-09-20T09:01:23.167Z,96549.19
2022-09-20T09:03:52.492Z,96540.31
2022-09-20T09:06:21.846Z,96542.63
2022-09-20T09:08:53.388Z,96544.41
2022-09-20T09:11:23.556Z,96539.72
2022-09-20T09:13:54.808Z,96544.63
2022-09-20T09:16:33.482Z,96551.72
2022-09-20T09:19:33.183Z,96542.38
2022-09-20T09:22:02.719Z,96540.44
2022-09-20T09:24:32.129Z,96543.94
2022-09-20T09:27:10.631Z,96537.06
2022-09-20T09:29:50.009Z,96548.22
2022-09-20T09:32:24.796Z,96548.44
2022-09-20T09:34:53.289Z,96557.47
2022-09-20T09:37:28.811Z,96554.88
2022-09-20T09:40:16.435Z,96555.59
2022-09-20T09:42:53.217Z,96567.38
2022-09-20T09:45:38.788Z,96564.47
2022-09-20T09:48:21.161Z,96558.56
2022-09-20T09:50:49.164Z,96560.41
2022-09-20T09:53:18.700Z,96560.94
2022-09-20T09:56:14.197Z,96564.81
2022-09-20T09:58:55.513Z,96578.13
2022-09-20T10:01:33.252Z,96582.66
2022-09-20T10:04:06.762Z,96587.47
2022-09-20T10:06:40.327Z,96589.31
2022-09-20T10:09:18.030Z,96580.28
2022-09-20T10:11:58.675Z,96574.88
2022-09-20T10:14:44.981Z,96569.44
2022-09-20T10:17:31.340Z,96567.38
2022-09-20T10:20:08.153Z,96532.41
2022-09-20T10:22:42.230Z,96563.81
2022-09-20T10:25:23.959Z,96556.31
2022-09-20T10:28:03.207Z,96540.53
2022-09-20T10:30:42.128Z,96553.84
2022-09-20T10:33:19.720Z,96548.00
2022-09-20T10:35:59.145Z,96554.25
2022-09-20T10:38:31.572Z,96549.59
2022-09-20T10:41:27.465Z,96550.00
2022-09-20T10:44:08.567Z,96549.53
2022-09-20T10:46:47.293Z,96548.69
2022-09-20T10:49:33.651Z,96555.84
2022-09-20T10:52:11.728Z,96558.94
2022-09-20T10:54:49.593Z,96552.81
2022-09-20T10:57:28.047Z,96541.06
2022-09-20T11:00:01.750Z,96545.63
2022-09-20T11:02:40.562Z,96538.91
2022-09-20T11:05:25.451Z,96560.06
2022-09-20T11:08:00.647Z,96530.91
2022-09-20T11:10:33.445Z,96540.38
2022-09-20T11:13:03.686Z,96534.78
2022-09-20T11:15:35.789Z,96547.31
2022-09-20T11:18:11.145Z,96552.50
2022-09-20T11:20:44.223Z,96551.16
2022-09-20T11:23:15.699Z,96547.69
2022-09-20T11:25:47.066Z,96555.16
2022-09-20T11:28:19.377Z,96562.91
2022-09-20T11:30:55.811Z,96517.69
2022-09-20T11:33:28.992Z,96552.50
2022-09-20T11:36:00.280Z,96568.19
2022-09-20T11:38:31.762Z,96563.72
2022-09-20T11:41:05.040Z,96553.94
2022-09-20T11:43:33.496Z,96584.72
2022-09-20T11:46:04.954Z,96571.56
2022-09-20T11:48:37.423Z,96601.44
2022-09-20T11:51:50.283Z,96611.75
2022-09-20T11:54:48.696Z,96605.16
2022-09-20T11:57:17.221Z,96603.34
2022-09-20T11:59:52.077Z,96593.22
2022-09-20T12:02:24.336Z,96584.31
2022-09-20T12:04:54.096Z,96579.41
2022-09-20T12:07:25.053Z,96586.91
2022-09-20T12:09:56.328Z,96580.09
2022-09-20T12:12:33.594Z,96578.59
2022-09-20T12:15:04.298Z,96580.28
2022-09-20T12:18:09.393Z,96573.38
2022-09-20T12:21:15.635Z,96566.25
2022-09-20T12:24:02.660Z,96559.28
2022-09-20T12:26:39.874Z,96552.81
2022-09-20T12:29:54.201Z,96548.53
2022-09-20T12:32:46.965Z,96543.63
2022-09-20T12:36:00.641Z,96554.69
2022-09-20T12:38:40.780Z,96558.66
2022-09-20T12:41:12.320Z,96552.44
2022-09-20T12:43:59.737Z,96550.56
2022-09-20T12:46:32.877Z,96558.25
2022-09-20T12:49:55.173Z,96555.59
2022-09-20T12:52:53.902Z,96548.72
2022-09-20T12:55:55.381Z,96563.09
2022-09-20T12:58:39.700Z,96520.75
2022-09-20T13:01:33.054Z,96565.41
2022-09-20T13:04:37.861Z,96570.41
2022-09-20T13:07:45.010Z,96571.47
2022-09-20T13:10:25.377Z,96592.38
2022-09-20T13:12:59.243Z,96614.56
2022-09-20T13:15:27.695Z,96617.84
2022-09-20T13:17:57.878Z,96621.72
2022-09-20T13:20:28.063Z,96631.94
2022-09-20T13:23:00.185Z,96609.19
2022-09-20T13:25:28.978Z,96639.59
2022-09-20T13:28:06.232Z,96522.78
2022-09-20T13:30:34.179Z,96562.94
2022-09-20T13:33:17.543Z,96622.91
2022-09-20T13:35:47.027Z,96614.63
2022-09-20T13:38:20.345Z,96615.19
2022-09-20T13:40:48.775Z,96588.44
2022-09-20T13:43:28.320Z,96600.66
2022-09-20T13:45:58.107Z,96598.44
2022-09-20T13:48:27.524Z,96588.03
2022-09-20T13:50:55.946Z,96591.19
2022-09-20T13:53:40.714Z,96595.13
2022-09-20T13:56:11.536Z,96566.03
2022-09-20T13:58:40.954Z,96575.06
2022-09-20T14:01:22.970Z,96596.09
2022-09-20T14:03:50.987Z,96601.69
2022-09-20T14:06:19.236Z,96593.94
2022-09-20T14:08:49.750Z,96577.09
2022-09-20T14:11:20.343Z,96593.59
2022-09-20T14:13:51.185Z,96595.66
2022-09-20T14:16:20.469Z,96605.50
2022-09-20T14:18:49.374Z,96601.06
2022-09-20T14:21:22.872Z,96598.84
2022-09-20T14:23:52.848Z,96589.94
2022-09-20T14:26:26.301Z,96600.50
2022-09-20T14:28:56.108Z,96581.72
2022-09-20T14:31:26.778Z,96591.22
2022-09-20T14:33:58.998Z,96566.25
2022-09-20T14:36:29.775Z,96561.22
2022-09-20T14:39:00.525Z,96555.81
2022-09-20T14:41:29.937Z,96585.63
2022-09-20T14:44:00.783Z,96569.94
2022-09-20T14:46:35.857Z,96545.06
2022-09-20T14:49:23.456Z,96598.81
2022-09-20T14:51:51.684Z,96537.19
2022-09-20T14:54:27.043Z,96600.16
2022-09-20T14:56:57.782Z,96600.16
2022-09-20T14:59:28.139Z,96606.19
2022-09-20T15:01:59.166Z,96612.13
2022-09-20T15:04:29.002Z,96609.25
2022-09-20T15:06:57.925Z,96615.72
2022-09-20T15:09:25.840Z,96628.97
2022-09-20T15:12:01.468Z,96596.59
2022-09-20T15:14:35.041Z,96607.31
2022-09-20T15:17:05.323Z,96570.66
2022-09-20T15:19:34.546Z,96633.97
2022-09-20T15:22:03.380Z,96626.94
2022-09-20T15:24:31.310Z,96569.63
2022-09-20T15:26:59.298Z,96597.59
2022-09-20T15:29:27.272Z,96619.75
2022-09-20T15:31:56.720Z,96607.13
2022-09-20T15:34:24.901Z,96628.63
2022-09-20T15:36:53.977Z,96627.78
2022-09-20T15:39:22.385Z,96616.47
2022-09-20T15:41:52.798Z,96634.69
2022-09-20T15:44:20.769Z,96630.84
2022-09-20T15:46:49.460Z,96629.59
2022-09-20T15:49:19.035Z,96632.41
2022-09-20T15:51:48.368Z,96530.50
2022-09-20T15:54:16.324Z,96628.16
2022-09-20T15:56:44.246Z,96632.84
2022-09-20T15:59:14.452Z,96618.59
2022-09-20T16:01:43.693Z,96614.00
2022-09-20T16:04:13.225Z,96634.88
2022-09-20T16:06:44.072Z,96634.91
2022-09-20T16:09:12.097Z,96617.84
2022-09-20T16:11:40.744Z,96638.03
2022-09-20T16:14:08.878Z,96522.38
2022-09-20T16:16:40.466Z,96633.94
2022-09-20T16:19:23.860Z,96540.63
2022-09-20T16:21:58.899Z,96641.53
2022-09-20T16:24:28.734Z,96611.38
2022-09-20T16:26:57.021Z,96654.19
2022-09-20T16:29:26.011Z,96650.66
2022-09-20T16:31:55.100Z,96652.53
2022-09-20T16:34:25.580Z,96652.31
2022-09-20T16:36:56.845Z,96658.97
2022-09-20T16:39:26.236Z,96620.03
2022-09-20T16:41:55.018Z,96658.22
2022-09-20T16:44:22.924Z,96634.75
2022-09-20T16:46:50.842Z,96646.50
2022-09-20T16:49:18.768Z,96666.25
2022-09-20T16:51:47.556Z,96676.31
2022-09-20T16:54:18.038Z,96677.06
2022-09-20T16:56:47.268Z,96656.63
2022-09-20T16:59:17.342Z,96683.97
2022-09-20T17:01:45.936Z,96671.69
2022-09-20T17:04:15.036Z,96698.91
2022-09-20T17:06:44.262Z,96697.28
2022-09-20T17:09:12.894Z,96675.31
2022-09-20T17:11:44.644Z,96703.59
2022-09-20T17:14:12.908Z,96704.91
2022-09-20T17:16:42.139Z,96682.41
2022-09-20T17:19:11.401Z,96666.00
2022-09-20T17:21:42.434Z,96717.25
2022-09-20T17:24:10.844Z,96694.63
2022-09-20T17:26:40.874Z,96707.53
2022-09-20T17:29:13.802Z,96704.50
2022-09-20T17:31:43.909Z,96670.59
2022-09-20T17:34:13.610Z,96702.75
2022-09-20T17:36:42.916Z,96702.38
2022-09-20T17:39:12.706Z,96703.03
2022-09-20T17:41:41.242Z,96709.34
2022-09-20T17:44:11.989Z,96695.91
2022-09-20T17:46:41.166Z,96699.03
2022-09-20T17:49:10.681Z,96717.19
2022-09-20T17:51:40.636Z,96720.72
2022-09-20T17:54:09.087Z,96697.56
2022-09-20T17:56:37.182Z,96727.25
2022-09-20T17:59:06.296Z,96722.28
2022-09-20T18:01:37.007Z,96721.56
2022-09-20T18:04:06.705Z,96727.91
2022-09-20T18:06:36.756Z,96728.06
2022-09-20T18:09:06.788Z,96704.00
2022-09-20T18:11:36.934Z,96727.56
2022-09-20T18:14:06.848Z,96732.97
2022-09-20T18:16:37.166Z,96743.72
2022-09-20T18:19:05.920Z,96735.50
2022-09-20T18:21:36.028Z,96725.09
2022-09-20T18:24:07.015Z,96746.56
2022-09-20T18:26:35.438Z,96755.16
2022-09-20T18:29:05.257Z,96707.78
2022-09-20T18:31:35.977Z,96757.47
2022-09-20T18:34:06.664Z,96760.38
2022-09-20T18:36:36.865Z,96737.88
2022-09-20T18:39:04.992Z,96775.31
2022-09-20T18:41:34.135Z,96741.34
2022-09-20T18:44:04.060Z,96777.31
2022-09-20T18:46:32.285Z,96753.78
2022-09-20T18:49:05.095Z,96795.34
2022-09-20T18:51:39.206Z,96785.53
2022-09-20T18:54:10.037Z,96744.19
2022-09-20T18:56:38.906Z,96797.81
2022-09-20T18:59:08.298Z,96797.59
2022-09-20T19:02:04.782Z,96801.47
2022-09-20T19:04:53.285Z,96801.31
2022-09-20T19:07:26.898Z,96805.16
2022-09-20T19:10:00.009Z,96801.78
2022-09-20T19:12:35.595Z,96811.97
2022-09-20T19:15:15.992Z,96765.94
2022-09-20T19:17:54.147Z,96814.88
2022-09-20T19:20:29.797Z,96813.13
2022-09-20T19:23:05.440Z,96697.63
2022-09-20T19:25:40.750Z,96798.09
2022-09-20T19:28:10.837Z,96770.56
2022-09-20T19:30:40.734Z,96817.81
2022-09-20T19:33:14.800Z,96801.78
2022-09-20T19:35:49.333Z,96816.72
2022-09-20T19:38:29.052Z,96778.63
2022-09-20T19:41:07.558Z,96811.13
2022-09-20T19:43:48.140Z,96818.13
2022-09-20T19:46:30.546Z,96822.03
2022-09-20T19:49:07.422Z,96749.00
2022-09-20T19:51:38.049Z,96824.44
2022-09-20T19:54:09.814Z,96819.22
2022-09-20T19:56:52.949Z,96832.41
2022-09-20T19:59:22.407Z,96838.38
2022-09-20T20:01:50.965Z,96844.50
2022-09-20T20:04:19.517Z,96834.38
2022-09-20T20:06:53.720Z,96768.13
2022-09-20T20:09:29.126Z,96838.16
2022-09-20T20:12:02.389Z,96681.53
2022-09-20T20:14:37.647Z,96852.88
2022-09-20T20:17:16.937Z,96849.72
2022-09-20T20:19:51.987Z,96799.31
2022-09-20T20:22:29.675Z,96843.81
2022-09-20T20:24:59.352Z,96854.72
2022-09-20T20:27:28.387Z,96808.25
2022-09-20T20:29:56.772Z,96855.03
2022-09-20T20:32:25.847Z,96854.16
2022-09-20T20:34:53.783Z,96857.53
2022-09-20T20:37:23.984Z,96855.03
2022-09-20T20:39:52.180Z,96865.47
2022-09-20T20:42:21.609Z,96863.19
2022-09-20T20:44:49.721Z,96861.72
2022-09-20T20:47:17.601Z,96872.19
2022-09-20T20:49:48.439Z,96870.59
2022-09-20T20:52:18.793Z,96873.66
2022-09-20T20:54:46.740Z,96714.34
2022-09-20T20:57:16.952Z,96879.13
2022-09-20T20:59:46.301Z,96879.88
2022-09-20T21:02:14.163Z,96883.09
2022-09-20T21:04:42.389Z,96879.84
2022-09-20T21:07:10.822Z,96887.31
2022-09-20T21:09:39.749Z,96886.56
2022-09-20T21:12:08.037Z,96891.97
2022-09-20T21:14:35.989Z,96889.63
2022-09-20T21:17:05.458Z,96891.41
2022-09-20T21:19:33.410Z,96893.47
2022-09-20T21:22:01.381Z,96894.16
2022-09-20T21:24:29.293Z,96890.78
2022-09-20T21:26:57.211Z,96806.78
2022-09-20T21:29:25.076Z,96888.69
2022-09-20T21:31:53.021Z,96886.56
2022-09-20T21:34:22.335Z,96834.03
2022-09-20T21:36:50.352Z,96886.34
2022-09-20T21:39:18.265Z,96886.28
2022-09-20T21:41:47.290Z,96869.03
2022-09-20T21:44:15.159Z,96894.09
2022-09-20T21:46:43.421Z,96892.44
2022-09-20T21:49:12.673Z,96896.88
2022-09-20T21:51:42.766Z,96899.44
2022-09-20T21:54:11.040Z,96900.06
2022-09-20T21:56:40.256Z,96903.63
2022-09-20T21:59:08.371Z,96909.59
2022-09-20T22:01:38.075Z,96877.56
2022-09-20T22:04:07.676Z,96906.91
2022-09-20T22:06:37.033Z,96902.09
2022-09-20T22:09:07.647Z,96801.06
2022-09-20T22:11:38.840Z,96904.44
2022-09-20T22:14:07.452Z,96909.00
2022-09-20T22:16:37.136Z,96907.50
2022-09-20T22:19:05.880Z,96889.25
2022-09-20T22:21:36.723Z,96915.16
2022-09-20T22:24:07.930Z,96904.13
2022-09-20T22:26:37.568Z,96910.84
2022-09-20T22:29:06.598Z,96908.94
2022-09-20T22:31:36.227Z,96910.47
2022-09-20T22:34:07.246Z,96920.94
2022-09-20T22:36:36.256Z,96918.22
2022-09-20T22:39:07.584Z,96914.16
2022-09-20T22:41:35.772Z,96910.84
2022-09-20T22:44:03.905Z,96920.88
2022-09-20T22:46:32.592Z,96911.50
2022-09-20T22:49:00.580Z,96915.03
2022-09-20T22:51:30.808Z,96923.81
2022-09-20T22:53:58.846Z,96920.59
2022-09-20T22:56:29.744Z,96913.53
2022-09-20T22:59:00.242Z,96918.19
2022-09-20T23:01:29.433Z,96910.84
2022-09-20T23:03:58.889Z,96891.31
2022-09-20T23:06:28.559Z,96908.25
2022-09-20T23:08:57.924Z,96912.31
2022-09-20T23:11:26.290Z,96900.31
2022-09-20T23:13:57.031Z,96899.56
2022-09-20T23:16:27.674Z,96911.50
2022-09-20T23:18:56.483Z,96859.41
2022-09-20T23:21:24.895Z,96913.81
2022-09-20T23:23:54.135Z,96891.22
2022-09-20T23:26:22.522Z,96914.03
2022-09-20T23:28:55.572Z,96915.81
2022-09-20T23:31:23.890Z,96807.19
2022-09-20T23:33:53.187Z,96906.91
2022-09-20T23:36:21.772Z,96920.50
2022-09-20T23:38:50.224Z,96918.88
2022-09-20T23:41:20.101Z,96924.81
2022-09-20T23:43:48.181Z,96919.59
2022-09-20T23:46:19.061Z,96925.38
2022-09-20T23:48:47.519Z,96873.94
2022-09-20T23:51:17.570Z,96928.19
2022-09-20T23:53:45.649Z,96924.22
2022-09-20T23:56:13.951Z,96914.41
2022-09-20T23:58:43.940Z,96914.28
